createdAt,value
2018-10-07T00:00:21.945Z,11.12
2018-10-07T00:00:53.045Z,11.75
2018-10-07T00:01:24.150Z,12.53
2018-10-07T00:01:55.283Z,12.40
2018-10-07T00:02:26.403Z,12.50
2018-10-07T00:02:57.513Z,12.63
2018-10-07T00:03:28.628Z,13.13
2018-10-07T00:03:59.734Z,14.75
2018-10-07T00:04:30.872Z,14.00
2018-10-07T00:05:01.982Z,15.00
2018-10-07T00:05:33.183Z,14.75
2018-10-07T00:06:04.287Z,14.70
2018-10-07T00:06:35.409Z,17.48
2018-10-07T00:07:06.517Z,17.37
2018-10-07T00:07:37.625Z,18.52
2018-10-07T00:08:08.757Z,18.67
2018-10-07T00:08:39.865Z,19.37
2018-10-07T00:09:10.984Z,19.60
2018-10-07T00:09:42.099Z,19.50
2018-10-07T00:10:13.226Z,19.85
2018-10-07T00:10:44.389Z,19.52
2018-10-07T00:11:15.547Z,20.35
2018-10-07T00:11:46.653Z,19.73
2018-10-07T00:12:17.785Z,20.00
2018-10-07T00:12:48.886Z,19.07
2018-10-07T00:13:20.014Z,18.98
2018-10-07T00:13:51.110Z,18.42
2018-10-07T00:14:22.214Z,18.80
2018-10-07T00:14:53.337Z,19.42
2018-10-07T00:15:24.463Z,19.32
2018-10-07T00:15:55.554Z,18.12
2018-10-07T00:16:26.661Z,19.25
2018-10-07T00:16:57.788Z,19.40
2018-10-07T00:17:28.945Z,20.23
2018-10-07T00:18:00.057Z,20.80
2018-10-07T00:18:31.195Z,22.15
2018-10-07T00:19:02.300Z,21.50
2018-10-07T00:19:33.421Z,21.00
2018-10-07T00:20:04.517Z,22.17
2018-10-07T00:20:35.614Z,22.42
2018-10-07T00:21:06.733Z,22.27
2018-10-07T00:21:37.854Z,22.45
2018-10-07T00:22:09.042Z,21.70
2018-10-07T00:22:40.155Z,21.37
2018-10-07T00:23:11.268Z,21.30
2018-10-07T00:23:42.387Z,22.30
2018-10-07T00:24:13.491Z,22.98
2018-10-07T00:24:44.585Z,21.87
2018-10-07T00:25:15.686Z,22.42
2018-10-07T00:25:46.804Z,21.85
2018-10-07T00:26:17.957Z,21.57
2018-10-07T00:26:49.066Z,21.75
2018-10-07T00:27:20.194Z,22.85
2018-10-07T00:27:51.299Z,22.85
2018-10-07T00:28:22.402Z,22.62
2018-10-07T00:28:53.502Z,23.07
2018-10-07T00:29:24.623Z,21.62
2018-10-07T00:29:55.727Z,23.70
2018-10-07T00:30:26.827Z,23.32
2018-10-07T00:30:57.960Z,23.57
2018-10-07T00:31:29.115Z,22.95
2018-10-07T00:32:00.251Z,22.40
2018-10-07T00:32:31.403Z,22.70
2018-10-07T00:33:02.539Z,23.77
2018-10-07T00:33:33.637Z,23.02
2018-10-07T00:34:04.750Z,23.20
2018-10-07T00:34:35.854Z,22.80
2018-10-07T00:35:06.961Z,23.22
2018-10-07T00:35:38.063Z,23.05
2018-10-07T00:36:09.164Z,22.55
2018-10-07T00:36:40.266Z,23.52
2018-10-07T00:37:11.436Z,23.70
2018-10-07T00:37:42.551Z,21.80
2018-10-07T00:38:13.663Z,23.27
2018-10-07T00:38:44.763Z,22.80
2018-10-07T00:39:15.884Z,23.32
2018-10-07T00:39:46.993Z,24.37
2018-10-07T00:40:18.125Z,24.95
2018-10-07T00:40:49.225Z,25.48
2018-10-07T00:41:20.335Z,27.40
2018-10-07T00:41:52.097Z,26.07
2018-10-07T00:42:23.275Z,31.05
2018-10-07T00:42:54.422Z,24.37
2018-10-07T00:43:25.534Z,24.25
2018-10-07T00:43:56.646Z,25.37
2018-10-07T00:44:27.789Z,25.97
2018-10-07T00:44:58.903Z,24.77
2018-10-07T00:45:30.090Z,26.35
2018-10-07T00:46:01.178Z,23.30
2018-10-07T00:46:32.310Z,23.87
2018-10-07T00:47:03.401Z,24.77
2018-10-07T00:47:34.567Z,24.65
2018-10-07T00:48:05.684Z,25.02
2018-10-07T00:48:36.806Z,26.02
2018-10-07T00:49:07.933Z,25.50
2018-10-07T00:49:39.043Z,26.02
2018-10-07T00:50:10.211Z,26.62
2018-10-07T00:50:41.426Z,25.85
2018-10-07T00:51:12.531Z,25.52
2018-10-07T00:51:43.625Z,26.65
2018-10-07T00:52:14.730Z,25.62
2018-10-07T00:52:45.907Z,27.35
2018-10-07T00:53:17.090Z,25.40
2018-10-07T00:53:48.199Z,26.70
2018-10-07T00:54:19.361Z,26.07
2018-10-07T00:54:50.469Z,26.55
2018-10-07T00:55:21.639Z,27.32
2018-10-07T00:55:52.778Z,26.52
2018-10-07T00:56:23.898Z,27.25
2018-10-07T00:56:55.028Z,27.75
2018-10-07T00:57:26.141Z,27.80
2018-10-07T00:57:57.252Z,28.05
2018-10-07T00:58:28.413Z,27.95
2018-10-07T00:58:59.547Z,26.60
2018-10-07T00:59:30.692Z,26.50
2018-10-07T01:00:01.814Z,27.15
2018-10-07T01:00:32.917Z,27.62
2018-10-07T01:01:04.041Z,25.92
2018-10-07T01:01:35.151Z,25.90
2018-10-07T01:02:06.321Z,26.77
2018-10-07T01:02:37.476Z,25.95
2018-10-07T01:03:08.583Z,27.40
2018-10-07T01:03:39.701Z,27.45
2018-10-07T01:04:10.821Z,29.87
2018-10-07T01:04:41.913Z,30.20
2018-10-07T01:05:13.011Z,29.25
2018-10-07T01:05:44.109Z,29.32
2018-10-07T01:06:15.209Z,30.32
2018-10-07T01:06:46.305Z,29.92
2018-10-07T01:07:17.463Z,28.47
2018-10-07T01:07:48.593Z,29.35
2018-10-07T01:08:19.711Z,29.45
2018-10-07T01:08:50.812Z,29.72
2018-10-07T01:09:21.903Z,29.42
2018-10-07T01:09:53.038Z,28.60
2018-10-07T01:10:24.159Z,29.37
2018-10-07T01:10:55.307Z,29.63
2018-10-07T01:11:26.406Z,30.00
2018-10-07T01:11:57.520Z,28.67
2018-10-07T01:12:28.661Z,28.52
2018-10-07T01:12:59.771Z,29.40
2018-10-07T01:13:30.877Z,29.42
2018-10-07T01:14:02.008Z,29.80
2018-10-07T01:14:33.115Z,30.10
2018-10-07T01:15:04.225Z,29.48
2018-10-07T01:15:35.339Z,29.72
2018-10-07T01:16:06.461Z,29.90
2018-10-07T01:16:37.569Z,29.75
2018-10-07T01:17:08.707Z,30.45
2018-10-07T01:17:39.802Z,30.65
2018-10-07T01:18:10.922Z,32.67
2018-10-07T01:18:42.020Z,31.48
2018-10-07T01:19:13.169Z,31.82
2018-10-07T01:19:44.266Z,31.70
2018-10-07T01:20:15.382Z,31.97
2018-10-07T01:20:46.484Z,31.40
2018-10-07T01:21:17.584Z,33.00
2018-10-07T01:21:48.722Z,32.78
2018-10-07T01:22:19.830Z,32.53
2018-10-07T01:22:50.949Z,33.13
2018-10-07T01:23:22.125Z,34.78
2018-10-07T01:23:53.223Z,34.50
2018-10-07T01:24:24.340Z,34.85
2018-10-07T01:24:55.433Z,35.10
2018-10-07T01:25:26.559Z,35.50
2018-10-07T01:25:57.693Z,35.58
2018-10-07T01:26:28.821Z,36.13
2018-10-07T01:26:59.937Z,36.00
2018-10-07T01:27:31.058Z,36.03
2018-10-07T01:28:02.150Z,35.43
2018-10-07T01:28:33.321Z,36.83
2018-10-07T01:29:04.426Z,36.95
2018-10-07T01:29:35.715Z,38.08
2018-10-07T01:30:06.822Z,38.45
2018-10-07T01:30:37.962Z,38.90
2018-10-07T01:31:09.079Z,40.60
2018-10-07T01:31:40.185Z,42.20
2018-10-07T01:32:11.291Z,40.20
2018-10-07T01:32:42.396Z,41.65
2018-10-07T01:33:13.524Z,40.70
2018-10-07T01:33:44.682Z,41.65
2018-10-07T01:34:15.789Z,40.80
2018-10-07T01:34:46.898Z,41.15
2018-10-07T01:35:18.019Z,41.98
2018-10-07T01:35:49.188Z,42.33
2018-10-07T01:36:20.305Z,42.65
2018-10-07T01:36:51.441Z,42.53
2018-10-07T01:37:22.567Z,41.02
2018-10-07T01:37:53.687Z,39.90
2018-10-07T01:38:24.827Z,41.28
2018-10-07T01:38:55.985Z,41.75
2018-10-07T01:39:27.128Z,41.68
2018-10-07T01:39:58.278Z,42.25
2018-10-07T01:40:29.427Z,40.63
2018-10-07T01:41:00.553Z,42.08
2018-10-07T01:41:31.680Z,43.48
2018-10-07T01:42:02.824Z,42.20
2018-10-07T01:42:33.945Z,44.05
2018-10-07T01:43:05.105Z,44.05
2018-10-07T01:43:36.254Z,42.95
2018-10-07T01:44:07.365Z,44.50
2018-10-07T01:44:38.474Z,43.85
2018-10-07T01:45:09.593Z,43.25
2018-10-07T01:45:40.773Z,43.10
2018-10-07T01:46:11.953Z,44.00
2018-10-07T01:46:43.088Z,43.70
2018-10-07T01:47:14.227Z,43.10
2018-10-07T01:47:45.385Z,45.78
2018-10-07T01:48:16.505Z,43.08
2018-10-07T01:48:47.637Z,44.23
2018-10-07T01:49:18.764Z,45.90
2018-10-07T01:49:49.891Z,42.90
2018-10-07T01:50:21.030Z,48.55
2018-10-07T01:50:52.178Z,46.37
2018-10-07T01:51:23.328Z,44.83
2018-10-07T01:51:54.437Z,44.77
2018-10-07T01:52:25.563Z,44.80
2018-10-07T01:52:56.718Z,42.83
2018-10-07T01:53:27.859Z,42.25
2018-10-07T01:53:58.965Z,41.55
2018-10-07T01:54:30.091Z,41.35
2018-10-07T01:55:01.233Z,40.10
2018-10-07T01:55:32.333Z,42.62
2018-10-07T01:56:03.436Z,40.70
2018-10-07T01:56:34.540Z,41.63
2018-10-07T01:57:05.651Z,41.48
2018-10-07T01:57:36.838Z,39.42
2018-10-07T01:58:08.004Z,40.67
2018-10-07T01:58:39.206Z,40.75
2018-10-07T01:59:10.374Z,42.30
2018-10-07T01:59:41.434Z,43.68
2018-10-07T02:00:12.569Z,43.13
2018-10-07T02:00:43.672Z,42.78
2018-10-07T02:01:14.873Z,46.53
2018-10-07T02:01:46.043Z,42.30
2018-10-07T02:02:17.160Z,44.08
2018-10-07T02:02:48.326Z,46.33
2018-10-07T02:03:19.466Z,48.42
2018-10-07T02:03:50.603Z,45.35
2018-10-07T02:04:21.722Z,51.35
2018-10-07T02:04:52.839Z,49.35
2018-10-07T02:05:23.943Z,45.12
2018-10-07T02:05:55.057Z,45.78
2018-10-07T02:06:26.154Z,45.98
2018-10-07T02:06:57.285Z,46.68
2018-10-07T02:07:28.452Z,46.75
2018-10-07T02:07:59.570Z,45.43
2018-10-07T02:08:30.670Z,45.03
2018-10-07T02:09:01.786Z,44.40
2018-10-07T02:09:32.953Z,45.92
2018-10-07T02:10:04.111Z,45.98
2018-10-07T02:10:35.303Z,45.88
2018-10-07T02:11:06.418Z,44.83
2018-10-07T02:11:37.662Z,45.00
2018-10-07T02:12:08.791Z,43.87
2018-10-07T02:12:39.910Z,45.40
2018-10-07T02:13:11.035Z,45.90
2018-10-07T02:13:42.198Z,45.88
2018-10-07T02:14:13.379Z,47.20
2018-10-07T02:14:44.483Z,45.20
2018-10-07T02:15:15.637Z,45.73
2018-10-07T02:15:46.754Z,48.25
2018-10-07T02:16:17.884Z,46.40
2018-10-07T02:17:26.411Z,53.98
2018-10-07T02:17:57.532Z,51.30
2018-10-07T02:18:28.675Z,49.50
2018-10-07T02:18:59.800Z,49.55
2018-10-07T02:19:30.913Z,49.83
2018-10-07T02:20:02.152Z,51.98
2018-10-07T02:20:33.389Z,51.20
2018-10-07T02:21:04.519Z,49.35
2018-10-07T02:21:35.658Z,46.95
2018-10-07T02:22:06.777Z,47.03
2018-10-07T02:22:37.892Z,45.58
2018-10-07T02:23:08.989Z,44.73
2018-10-07T02:23:40.110Z,46.30
2018-10-07T02:24:11.266Z,46.70
2018-10-07T02:24:42.427Z,47.33
2018-10-07T02:25:13.548Z,46.92
2018-10-07T02:25:44.735Z,46.50
2018-10-07T02:26:15.848Z,48.68
2018-10-07T02:26:47.002Z,47.67
2018-10-07T02:27:18.141Z,49.13
2018-10-07T02:27:49.299Z,51.37
2018-10-07T02:28:20.397Z,49.48
2018-10-07T02:28:51.538Z,49.48
2018-10-07T02:29:22.683Z,49.50
2018-10-07T02:29:53.849Z,51.25
2018-10-07T02:30:24.963Z,50.55
2018-10-07T02:30:56.077Z,49.90
2018-10-07T02:31:27.205Z,50.52
2018-10-07T02:31:58.348Z,50.48
2018-10-07T02:32:29.479Z,50.48
2018-10-07T02:33:00.593Z,51.05
2018-10-07T02:33:31.726Z,51.77
2018-10-07T02:34:02.877Z,52.05
2018-10-07T02:34:34.014Z,51.92
2018-10-07T02:35:05.187Z,50.60
2018-10-07T02:35:36.298Z,50.20
2018-10-07T02:36:07.430Z,52.78
2018-10-07T02:36:38.581Z,50.52
2018-10-07T02:37:09.779Z,50.63
2018-10-07T02:37:40.892Z,51.53
2018-10-07T02:38:12.015Z,49.75
2018-10-07T02:38:43.192Z,48.70
2018-10-07T02:39:14.296Z,47.30
2018-10-07T02:39:45.453Z,48.05
2018-10-07T02:40:16.637Z,48.23
2018-10-07T02:40:47.820Z,48.40
2018-10-07T02:41:18.932Z,47.30
2018-10-07T02:41:50.070Z,47.88
2018-10-07T02:42:21.250Z,48.58
2018-10-07T02:42:52.361Z,50.38
2018-10-07T02:43:23.581Z,50.08
2018-10-07T02:43:54.708Z,50.55
2018-10-07T02:44:25.842Z,49.38
2018-10-07T02:44:56.967Z,50.75
2018-10-07T02:45:28.129Z,52.55
2018-10-07T02:45:59.279Z,52.23
2018-10-07T02:46:30.394Z,52.70
2018-10-07T02:47:01.582Z,53.13
2018-10-07T02:47:32.689Z,54.90
2018-10-07T02:48:03.865Z,55.90
2018-10-07T02:48:34.997Z,55.70
2018-10-07T02:49:06.118Z,52.93
2018-10-07T02:49:37.282Z,53.85
2018-10-07T02:50:08.457Z,53.92
2018-10-07T02:50:39.613Z,55.75
2018-10-07T02:51:10.721Z,54.70
2018-10-07T02:51:41.821Z,51.40
2018-10-07T02:52:12.929Z,52.93
2018-10-07T02:52:44.092Z,50.75
2018-10-07T02:53:15.213Z,50.73
2018-10-07T02:53:46.350Z,49.67
2018-10-07T02:54:17.514Z,49.23
2018-10-07T02:54:48.689Z,49.65
2018-10-07T02:55:19.835Z,49.40
2018-10-07T02:55:51.018Z,52.03
2018-10-07T02:56:22.168Z,51.25
2018-10-07T02:56:53.278Z,50.25
2018-10-07T02:57:24.412Z,50.35
2018-10-07T02:57:55.542Z,50.58
2018-10-07T02:58:26.665Z,49.75
2018-10-07T02:58:57.793Z,49.38
2018-10-07T02:59:28.949Z,50.20
2018-10-07T03:00:00.061Z,48.68
2018-10-07T03:00:31.192Z,49.20
2018-10-07T03:01:02.304Z,48.65
2018-10-07T03:01:33.448Z,48.28
2018-10-07T03:02:04.599Z,48.15
2018-10-07T03:02:35.731Z,48.05
2018-10-07T03:03:06.861Z,48.20
2018-10-07T03:03:38.011Z,49.03
2018-10-07T03:04:09.153Z,46.58
2018-10-07T03:04:40.293Z,47.65
2018-10-07T03:05:11.521Z,53.87
2018-10-07T03:05:42.684Z,55.28
2018-10-07T03:06:13.818Z,51.98
2018-10-07T03:06:44.946Z,59.38
2018-10-07T03:07:16.096Z,52.35
2018-10-07T03:07:47.277Z,49.08
2018-10-07T03:08:18.423Z,48.45
2018-10-07T03:08:49.558Z,48.40
2018-10-07T03:09:20.754Z,46.53
2018-10-07T03:09:51.877Z,47.15
2018-10-07T03:10:23.049Z,45.95
2018-10-07T03:10:54.207Z,47.58
2018-10-07T03:11:25.334Z,47.23
2018-10-07T03:11:56.470Z,47.48
2018-10-07T03:12:27.590Z,47.43
2018-10-07T03:12:58.763Z,46.68
2018-10-07T03:13:29.878Z,48.28
2018-10-07T03:14:00.999Z,51.95
2018-10-07T03:14:32.166Z,51.60
2018-10-07T03:15:03.332Z,50.88
2018-10-07T03:15:34.477Z,51.58
2018-10-07T03:16:05.653Z,49.83
2018-10-07T03:16:36.752Z,48.75
2018-10-07T03:17:07.908Z,47.67
2018-10-07T03:17:39.026Z,47.17
2018-10-07T03:18:10.203Z,47.15
2018-10-07T03:18:41.354Z,46.35
2018-10-07T03:19:12.476Z,44.98
2018-10-07T03:19:43.581Z,46.23
2018-10-07T03:20:14.687Z,43.85
2018-10-07T03:20:45.785Z,45.08
2018-10-07T03:21:16.898Z,44.88
2018-10-07T03:21:48.045Z,45.63
2018-10-07T03:22:19.186Z,46.00
2018-10-07T03:22:50.310Z,45.88
2018-10-07T03:23:21.415Z,45.75
2018-10-07T03:23:52.571Z,46.65
2018-10-07T03:24:23.676Z,47.17
2018-10-07T03:24:54.818Z,47.20
2018-10-07T03:25:25.964Z,46.73
2018-10-07T03:25:57.096Z,47.30
2018-10-07T03:26:28.197Z,47.40
2018-10-07T03:26:59.305Z,47.45
2018-10-07T03:27:30.478Z,49.75
2018-10-07T03:28:01.613Z,49.53
2018-10-07T03:28:32.732Z,49.83
2018-10-07T03:29:03.896Z,49.88
2018-10-07T03:29:35.042Z,50.65
2018-10-07T03:30:06.237Z,51.08
2018-10-07T03:30:37.384Z,52.40
2018-10-07T03:31:08.534Z,63.45
2018-10-07T03:31:39.675Z,55.10
2018-10-07T03:32:10.820Z,54.15
2018-10-07T03:32:41.952Z,52.33
2018-10-07T03:33:13.075Z,50.25
2018-10-07T03:33:44.217Z,50.78
2018-10-07T03:34:15.442Z,48.85
2018-10-07T03:34:46.569Z,48.85
2018-10-07T03:35:17.754Z,49.08
2018-10-07T03:35:48.883Z,48.17
2018-10-07T03:36:19.996Z,48.15
2018-10-07T03:36:51.153Z,50.23
2018-10-07T03:37:22.261Z,48.02
2018-10-07T03:37:53.387Z,50.92
2018-10-07T03:38:24.498Z,49.30
2018-10-07T03:38:55.673Z,50.48
2018-10-07T03:39:26.812Z,51.85
2018-10-07T03:39:58.026Z,50.65
2018-10-07T03:40:29.191Z,51.55
2018-10-07T03:41:00.307Z,51.00
2018-10-07T03:41:31.431Z,52.20
2018-10-07T03:42:02.546Z,51.23
2018-10-07T03:42:33.659Z,50.98
2018-10-07T03:43:04.816Z,50.50
2018-10-07T03:43:35.942Z,52.27
2018-10-07T03:44:07.117Z,52.98
2018-10-07T03:44:38.270Z,53.00
2018-10-07T03:45:09.388Z,53.75
2018-10-07T03:45:40.497Z,55.03
2018-10-07T03:46:11.618Z,55.78
2018-10-07T03:46:42.747Z,58.78
2018-10-07T03:47:13.867Z,56.42
2018-10-07T03:47:44.975Z,56.40
2018-10-07T03:48:16.129Z,57.15
2018-10-07T03:48:47.278Z,56.02
2018-10-07T03:49:18.369Z,55.90
2018-10-07T03:49:49.513Z,57.53
2018-10-07T03:50:20.647Z,56.65
2018-10-07T03:50:51.758Z,56.53
2018-10-07T03:51:23.187Z,57.40
2018-10-07T03:51:54.439Z,57.50
2018-10-07T03:52:25.543Z,56.75
2018-10-07T03:52:56.666Z,54.08
2018-10-07T03:53:27.770Z,55.05
2018-10-07T03:53:58.926Z,53.40
2018-10-07T03:54:30.111Z,53.65
2018-10-07T03:55:01.225Z,57.98
2018-10-07T03:55:32.408Z,57.73
2018-10-07T03:56:03.561Z,56.13
2018-10-07T03:56:34.699Z,57.65
2018-10-07T03:57:05.873Z,56.42
2018-10-07T03:57:37.014Z,55.67
2018-10-07T03:58:08.133Z,55.55
2018-10-07T03:58:39.337Z,55.33
2018-10-07T03:59:10.512Z,57.17
2018-10-07T03:59:41.612Z,61.13
2018-10-07T04:00:12.733Z,63.13
2018-10-07T04:00:43.984Z,61.00
2018-10-07T04:01:15.121Z,62.27
2018-10-07T04:01:46.231Z,60.30
2018-10-07T04:02:17.379Z,57.45
2018-10-07T04:02:48.502Z,54.35
2018-10-07T04:03:19.678Z,56.53
2018-10-07T04:03:50.883Z,56.75
2018-10-07T04:04:22.040Z,56.42
2018-10-07T04:04:53.209Z,54.35
2018-10-07T04:05:24.334Z,55.70
2018-10-07T04:05:55.436Z,56.18
2018-10-07T04:06:26.575Z,54.88
2018-10-07T04:06:57.692Z,55.63
2018-10-07T04:07:28.869Z,58.45
2018-10-07T04:07:59.991Z,57.78
2018-10-07T04:08:31.133Z,57.60
2018-10-07T04:09:02.338Z,60.55
2018-10-07T04:09:33.435Z,60.33
2018-10-07T04:10:04.590Z,58.08
2018-10-07T04:10:35.703Z,57.95
2018-10-07T04:11:06.851Z,58.73
2018-10-07T04:11:38.027Z,57.90
2018-10-07T04:12:09.158Z,59.58
2018-10-07T04:12:40.278Z,58.68
2018-10-07T04:13:11.396Z,58.10
2018-10-07T04:13:42.575Z,56.13
2018-10-07T04:14:13.679Z,57.93
2018-10-07T04:14:44.808Z,54.48
2018-10-07T04:15:15.917Z,56.13
2018-10-07T04:15:47.031Z,54.03
2018-10-07T04:16:18.160Z,53.73
2018-10-07T04:16:49.334Z,54.75
2018-10-07T04:17:20.487Z,55.78
2018-10-07T04:17:51.644Z,54.45
2018-10-07T04:18:22.806Z,56.08
2018-10-07T04:18:53.919Z,58.38
2018-10-07T04:19:25.031Z,56.45
2018-10-07T04:19:56.197Z,56.53
2018-10-07T04:20:27.346Z,56.77
2018-10-07T04:20:58.447Z,59.25
2018-10-07T04:21:29.597Z,58.45
2018-10-07T04:22:00.752Z,58.33
2018-10-07T04:22:31.884Z,57.90
2018-10-07T04:23:03.069Z,56.60
2018-10-07T04:23:34.195Z,55.73
2018-10-07T04:24:05.305Z,55.73
2018-10-07T04:24:36.419Z,53.60
2018-10-07T04:25:07.549Z,53.55
2018-10-07T04:25:38.696Z,52.38
2018-10-07T04:26:09.819Z,51.23
2018-10-07T04:26:40.984Z,49.73
2018-10-07T04:27:12.159Z,49.13
2018-10-07T04:27:43.271Z,49.60
2018-10-07T04:28:14.373Z,49.42
2018-10-07T04:28:45.518Z,49.50
2018-10-07T04:29:16.660Z,50.17
2018-10-07T04:29:47.769Z,49.70
2018-10-07T04:30:18.949Z,50.55
2018-10-07T04:30:50.060Z,51.68
2018-10-07T04:31:21.171Z,50.73
2018-10-07T04:31:52.276Z,48.15
2018-10-07T04:32:23.388Z,47.17
2018-10-07T04:32:54.521Z,46.65
2018-10-07T04:33:25.652Z,47.75
2018-10-07T04:33:56.821Z,48.55
2018-10-07T04:34:27.932Z,48.00
2018-10-07T04:34:59.097Z,47.20
2018-10-07T04:35:30.314Z,46.70
2018-10-07T04:36:01.429Z,46.60
2018-10-07T04:36:32.544Z,48.65
2018-10-07T04:37:03.748Z,47.20
2018-10-07T04:37:34.837Z,46.68
2018-10-07T04:38:05.946Z,44.88
2018-10-07T04:38:37.079Z,45.73
2018-10-07T04:39:08.257Z,45.03
2018-10-07T04:39:39.533Z,44.13
2018-10-07T04:40:10.679Z,43.60
2018-10-07T04:40:41.865Z,42.62
2018-10-07T04:41:12.995Z,41.77
2018-10-07T04:41:44.108Z,39.92
2018-10-07T04:42:15.205Z,40.23
2018-10-07T04:42:46.351Z,40.12
2018-10-07T04:43:17.468Z,37.55
2018-10-07T04:43:48.601Z,40.12
2018-10-07T04:44:19.736Z,40.28
2018-10-07T04:44:50.865Z,39.30
2018-10-07T04:45:22.010Z,38.70
2018-10-07T04:45:53.157Z,38.63
2018-10-07T04:46:24.295Z,39.42
2018-10-07T04:46:55.512Z,37.67
2018-10-07T04:47:26.663Z,39.10
2018-10-07T04:47:57.801Z,38.30
2018-10-07T04:48:28.979Z,39.05
2018-10-07T04:49:00.088Z,37.25
2018-10-07T04:49:31.213Z,36.83
2018-10-07T04:50:02.326Z,37.08
2018-10-07T04:50:33.470Z,37.67
2018-10-07T04:51:04.609Z,35.65
2018-10-07T04:51:35.728Z,37.23
2018-10-07T04:52:06.862Z,37.13
2018-10-07T04:52:37.982Z,37.00
2018-10-07T04:53:09.106Z,36.08
2018-10-07T04:53:40.282Z,37.80
2018-10-07T04:54:11.427Z,35.23
2018-10-07T04:54:42.618Z,36.30
2018-10-07T04:55:13.733Z,35.65
2018-10-07T04:55:44.877Z,35.65
2018-10-07T04:56:15.989Z,33.73
2018-10-07T04:56:47.209Z,33.90
2018-10-07T04:57:18.466Z,34.15
2018-10-07T04:57:49.597Z,32.88
2018-10-07T04:58:20.747Z,31.90
2018-10-07T04:58:51.905Z,32.85
2018-10-07T04:59:23.119Z,32.50
2018-10-07T04:59:56.757Z,31.65
2018-10-07T05:00:27.943Z,31.57
2018-10-07T05:00:59.082Z,33.30
2018-10-07T05:01:30.212Z,31.20
2018-10-07T05:02:01.328Z,32.25
2018-10-07T05:02:32.505Z,31.90
2018-10-07T05:03:03.653Z,32.73
2018-10-07T05:03:34.785Z,31.68
2018-10-07T05:04:05.974Z,32.10
2018-10-07T05:04:37.120Z,33.42
2018-10-07T05:05:08.316Z,33.88
2018-10-07T05:05:39.471Z,31.00
2018-10-07T05:06:10.611Z,36.05
2018-10-07T05:06:41.813Z,31.75
2018-10-07T05:07:12.956Z,30.75
2018-10-07T05:07:44.072Z,29.27
2018-10-07T05:08:15.300Z,29.67
2018-10-07T05:08:46.456Z,29.92
2018-10-07T05:09:17.651Z,30.02
2018-10-07T05:09:48.789Z,30.72
2018-10-07T05:10:19.998Z,28.70
2018-10-07T05:10:51.175Z,29.50
2018-10-07T05:11:22.363Z,32.50
2018-10-07T05:11:53.678Z,31.12
2018-10-07T05:12:24.857Z,31.45
2018-10-07T05:12:55.969Z,31.35
2018-10-07T05:13:30.137Z,31.07
2018-10-07T05:14:01.250Z,29.75
2018-10-07T05:14:32.362Z,30.43
2018-10-07T05:15:03.473Z,29.87
2018-10-07T05:15:35.411Z,31.02
2018-10-07T05:16:06.553Z,31.65
2018-10-07T05:16:37.657Z,32.00
2018-10-07T05:17:08.792Z,29.37
2018-10-07T05:17:40.034Z,30.17
2018-10-07T05:18:11.142Z,29.65
2018-10-07T05:18:42.296Z,28.02
2018-10-07T05:19:13.500Z,28.65
2018-10-07T05:19:44.631Z,30.48
2018-10-07T05:20:15.784Z,28.92
2018-10-07T05:20:47.006Z,26.77
2018-10-07T05:21:18.096Z,27.20
2018-10-07T05:21:49.222Z,28.32
2018-10-07T05:22:20.339Z,28.07
2018-10-07T05:22:51.438Z,27.87
2018-10-07T05:23:22.618Z,27.73
2018-10-07T05:23:53.749Z,28.75
2018-10-07T05:24:24.892Z,28.17
2018-10-07T05:24:56.005Z,28.98
2018-10-07T05:25:27.183Z,30.08
2018-10-07T05:25:58.309Z,29.10
2018-10-07T05:26:29.439Z,29.35
2018-10-07T05:27:00.553Z,29.07
2018-10-07T05:27:31.766Z,30.08
2018-10-07T05:28:02.935Z,28.05
2018-10-07T05:28:34.041Z,28.55
2018-10-07T05:29:05.156Z,28.12
2018-10-07T05:29:36.354Z,29.37
2018-10-07T05:30:07.466Z,28.80
2018-10-07T05:30:38.611Z,29.50
2018-10-07T05:31:09.762Z,28.87
2018-10-07T05:31:40.923Z,29.32
2018-10-07T05:32:12.063Z,27.55
2018-10-07T05:32:43.224Z,27.90
2018-10-07T05:33:14.338Z,27.55
2018-10-07T05:33:45.464Z,27.82
2018-10-07T05:34:16.578Z,27.13
2018-10-07T05:34:47.753Z,28.32
2018-10-07T05:35:18.890Z,28.62
2018-10-07T05:35:49.998Z,29.42
2018-10-07T05:36:21.111Z,28.62
2018-10-07T05:36:52.208Z,29.25
2018-10-07T05:37:23.313Z,28.67
2018-10-07T05:37:54.456Z,28.80
2018-10-07T05:38:25.595Z,27.70
2018-10-07T05:38:56.705Z,27.45
2018-10-07T05:39:27.819Z,27.27
2018-10-07T05:39:58.943Z,27.90
2018-10-07T05:40:30.063Z,29.42
2018-10-07T05:41:01.175Z,28.02
2018-10-07T05:41:32.333Z,28.50
2018-10-07T05:42:03.463Z,28.77
2018-10-07T05:42:34.568Z,29.50
2018-10-07T05:43:05.740Z,29.10
2018-10-07T05:43:36.856Z,28.92
2018-10-07T05:44:08.024Z,27.93
2018-10-07T05:44:39.155Z,27.25
2018-10-07T05:45:10.250Z,28.50
2018-10-07T05:45:41.358Z,29.92
2018-10-07T05:46:12.498Z,29.35
2018-10-07T05:46:43.639Z,28.32
2018-10-07T05:47:14.741Z,28.95
2018-10-07T05:47:45.845Z,28.15
2018-10-07T05:48:16.958Z,29.18
2018-10-07T05:48:48.095Z,27.58
2018-10-07T05:49:19.237Z,25.90
2018-10-07T05:49:50.406Z,26.87
2018-10-07T05:50:21.599Z,27.07
2018-10-07T05:50:52.783Z,28.32
2018-10-07T05:51:24.000Z,27.98
2018-10-07T05:51:55.110Z,24.25
2018-10-07T05:52:26.238Z,24.80
2018-10-07T05:52:57.347Z,26.10
2018-10-07T05:53:28.455Z,25.92
2018-10-07T05:54:46.674Z,24.45
2018-10-07T05:55:17.817Z,24.85
2018-10-07T05:55:49.040Z,25.35
2018-10-07T05:56:20.115Z,27.62
2018-10-07T05:56:51.268Z,26.20
2018-10-07T05:57:22.377Z,26.37
2018-10-07T05:57:53.502Z,24.45
2018-10-07T05:58:24.635Z,25.62
2018-10-07T05:58:55.754Z,23.18
2018-10-07T05:59:26.883Z,24.95
2018-10-07T05:59:58.122Z,24.80
2018-10-07T06:00:29.276Z,24.02
2018-10-07T06:01:00.457Z,22.58
2018-10-07T06:01:31.655Z,24.25
2018-10-07T06:02:02.767Z,23.47
2018-10-07T06:02:33.900Z,22.95
2018-10-07T06:03:05.010Z,22.45
2018-10-07T06:03:36.135Z,22.45
2018-10-07T06:04:07.312Z,22.15
2018-10-07T06:04:38.494Z,22.55
2018-10-07T06:05:10.395Z,20.15
2018-10-07T06:05:41.519Z,19.05
2018-10-07T06:06:13.601Z,20.00
2018-10-07T06:06:44.711Z,18.35
2018-10-07T06:07:15.862Z,19.27
2018-10-07T06:07:46.974Z,17.95
2018-10-07T06:08:18.106Z,19.80
2018-10-07T06:08:49.202Z,18.42
2018-10-07T06:09:20.331Z,18.52
2018-10-07T06:09:51.570Z,19.27
2018-10-07T06:10:22.711Z,19.55
2018-10-07T06:10:53.830Z,19.32
2018-10-07T06:11:24.972Z,20.65
2018-10-07T06:11:56.164Z,21.52
2018-10-07T06:12:27.277Z,20.32
2018-10-07T06:12:58.382Z,20.48
2018-10-07T06:13:29.516Z,19.67
2018-10-07T06:14:00.784Z,20.32
2018-10-07T06:14:31.915Z,21.17
2018-10-07T06:15:03.092Z,21.23
2018-10-07T06:15:34.246Z,21.27
2018-10-07T06:16:05.476Z,22.55
2018-10-07T06:16:36.616Z,22.42
2018-10-07T06:17:07.746Z,21.10
2018-10-07T06:17:38.894Z,22.05
2018-10-07T06:18:10.025Z,23.25
2018-10-07T06:18:41.223Z,23.52
2018-10-07T06:19:12.436Z,22.80
2018-10-07T06:19:43.563Z,25.05
2018-10-07T06:20:14.744Z,23.60
2018-10-07T06:20:45.911Z,23.02
2018-10-07T06:21:17.135Z,23.18
2018-10-07T06:21:48.243Z,22.37
2018-10-07T06:22:19.381Z,21.55
2018-10-07T06:22:50.505Z,20.02
2018-10-07T06:23:21.626Z,20.15
2018-10-07T06:23:52.794Z,20.12
2018-10-07T06:24:23.908Z,20.52
2018-10-07T06:24:55.023Z,20.60
2018-10-07T06:25:26.166Z,20.30
2018-10-07T06:25:57.327Z,19.70
2018-10-07T06:26:28.434Z,19.87
2018-10-07T06:26:59.548Z,19.42
2018-10-07T06:27:30.722Z,19.42
2018-10-07T06:28:01.921Z,19.27
2018-10-07T06:28:33.063Z,19.05
2018-10-07T06:29:05.419Z,20.00
2018-10-07T06:29:36.656Z,19.57
2018-10-07T06:30:07.798Z,19.30
2018-10-07T06:30:38.927Z,18.90
2018-10-07T06:31:10.056Z,18.70
2018-10-07T06:31:41.167Z,17.92
2018-10-07T06:32:12.365Z,18.17
2018-10-07T06:32:43.487Z,18.85
2018-10-07T06:33:14.642Z,18.85
2018-10-07T06:33:45.789Z,18.87
2018-10-07T06:34:16.978Z,18.10
2018-10-07T06:34:48.125Z,18.90
2018-10-07T06:35:19.244Z,19.20
2018-10-07T06:35:50.376Z,18.60
2018-10-07T06:36:21.503Z,18.75
2018-10-07T06:36:52.672Z,18.75
2018-10-07T06:37:23.848Z,19.98
2018-10-07T06:37:54.971Z,19.45
2018-10-07T06:38:26.093Z,20.05
2018-10-07T06:38:57.224Z,20.00
2018-10-07T06:39:28.374Z,18.98
2018-10-07T06:39:59.606Z,19.45
2018-10-07T06:40:30.758Z,19.00
2018-10-07T06:41:01.927Z,18.55
2018-10-07T06:41:33.094Z,18.90
2018-10-07T06:42:04.254Z,19.42
2018-10-07T06:42:35.369Z,18.70